sensor_id;sensor_type;location;lat;lon;timestamp;temperature;humidity
17891;DHT22;9071;48.220;14.480;2023-08-24T00:00:45;20.40;99.90
17891;DHT22;9071;48.220;14.480;2023-08-24T00:05:48;20.30;99.90
17891;DHT22;9071;48.220;14.480;2023-08-24T00:10:52;20.30;99.90
17891;DHT22;9071;48.220;14.480;2023-08-24T00:15:55;20.20;99.90
17891;DHT22;9071;48.220;14.480;2023-08-24T00:20:58;20.10;99.90
17891;DHT22;9071;48.220;14.480;2023-08-24T00:26:02;20.10;99.90
17891;DHT22;9071;48.220;14.480;2023-08-24T00:31:05;20.00;99.90
17891;DHT22;9071;48.220;14.480;2023-08-24T00:36:07;20.00;99.90
17891;DHT22;9071;48.220;14.480;2023-08-24T00:41:12;20.00;99.90
17891;DHT22;9071;48.220;14.480;2023-08-24T00:46:15;20.00;99.90
17891;DHT22;9071;48.220;14.480;2023-08-24T00:51:18;20.00;99.90
17891;DHT22;9071;48.220;14.480;2023-08-24T00:56:23;19.90;99.90
17891;DHT22;9071;48.220;14.480;2023-08-24T01:01:26;19.90;99.90
17891;DHT22;9071;48.220;14.480;2023-08-24T01:06:29;19.90;99.90
17891;DHT22;9071;48.220;14.480;2023-08-24T01:11:43;19.80;99.90
17891;DHT22;9071;48.220;14.480;2023-08-24T01:16:48;19.70;99.90
17891;DHT22;9071;48.220;14.480;2023-08-24T01:21:54;19.60;99.90
17891;DHT22;9071;48.220;14.480;2023-08-24T01:27:00;19.50;99.90
17891;DHT22;9071;48.220;14.480;2023-08-24T01:32:04;19.50;99.90
17891;DHT22;9071;48.220;14.480;2023-08-24T01:37:07;19.50;99.90
17891;DHT22;9071;48.220;14.480;2023-08-24T01:42:14;19.60;99.90
17891;DHT22;9071;48.220;14.480;2023-08-24T01:47:20;19.60;99.90
17891;DHT22;9071;48.220;14.480;2023-08-24T01:52:24;19.50;99.90
17891;DHT22;9071;48.220;14.480;2023-08-24T01:57:29;19.50;99.90
17891;DHT22;9071;48.220;14.480;2023-08-24T02:02:32;19.40;99.90
17891;DHT22;9071;48.220;14.480;2023-08-24T02:07:35;19.30;99.90
17891;DHT22;9071;48.220;14.480;2023-08-24T02:12:41;19.20;99.90
17891;DHT22;9071;48.220;14.480;2023-08-24T02:17:43;19.10;99.90
17891;DHT22;9071;48.220;14.480;2023-08-24T02:22:46;19.10;99.90
17891;DHT22;9071;48.220;14.480;2023-08-24T02:27:50;19.10;99.90
17891;DHT22;9071;48.220;14.480;2023-08-24T02:32:53;19.10;99.90
17891;DHT22;9071;48.220;14.480;2023-08-24T02:37:56;19.10;99.90
17891;DHT22;9071;48.220;14.480;2023-08-24T02:43:00;19.20;99.90
17891;DHT22;9071;48.220;14.480;2023-08-24T02:48:04;19.20;99.90
17891;DHT22;9071;48.220;14.480;2023-08-24T02:53:07;19.00;99.90
17891;DHT22;9071;48.220;14.480;2023-08-24T02:58:11;19.00;99.90
17891;DHT22;9071;48.220;14.480;2023-08-24T03:03:14;18.90;99.90
17891;DHT22;9071;48.220;14.480;2023-08-24T03:08:17;18.80;99.90
17891;DHT22;9071;48.220;14.480;2023-08-24T03:13:21;18.90;99.90
17891;DHT22;9071;48.220;14.480;2023-08-24T03:18:24;18.90;99.90
17891;DHT22;9071;48.220;14.480;2023-08-24T03:23:26;18.80;99.90
17891;DHT22;9071;48.220;14.480;2023-08-24T03:28:30;18.70;99.90
17891;DHT22;9071;48.220;14.480;2023-08-24T03:33:33;18.60;99.90
17891;DHT22;9071;48.220;14.480;2023-08-24T03:38:36;18.50;99.90
17891;DHT22;9071;48.220;14.480;2023-08-24T03:43:40;18.40;99.90
17891;DHT22;9071;48.220;14.480;2023-08-24T03:48:43;18.40;99.90
17891;DHT22;9071;48.220;14.480;2023-08-24T03:53:45;18.30;99.90
17891;DHT22;9071;48.220;14.480;2023-08-24T03:58:50;18.30;99.90
17891;DHT22;9071;48.220;14.480;2023-08-24T04:03:52;18.30;99.90
17891;DHT22;9071;48.220;14.480;2023-08-24T04:08:55;18.30;99.90
17891;DHT22;9071;48.220;14.480;2023-08-24T04:13:59;18.30;99.90
17891;DHT22;9071;48.220;14.480;2023-08-24T04:19:02;18.20;99.90
17891;DHT22;9071;48.220;14.480;2023-08-24T04:24:04;18.30;99.90
17891;DHT22;9071;48.220;14.480;2023-08-24T04:29:09;18.30;99.90
17891;DHT22;9071;48.220;14.480;2023-08-24T04:34:12;18.30;99.90
17891;DHT22;9071;48.220;14.480;2023-08-24T04:39:14;18.40;99.90
17891;DHT22;9071;48.220;14.480;2023-08-24T04:44:21;18.50;99.90
17891;DHT22;9071;48.220;14.480;2023-08-24T04:49:23;18.60;99.90
17891;DHT22;9071;48.220;14.480;2023-08-24T04:54:26;18.80;99.90
17891;DHT22;9071;48.220;14.480;2023-08-24T04:59:30;19.00;99.90
17891;DHT22;9071;48.220;14.480;2023-08-24T05:04:33;19.20;99.90
17891;DHT22;9071;48.220;14.480;2023-08-24T05:09:35;19.40;99.90
17891;DHT22;9071;48.220;14.480;2023-08-24T05:14:40;19.60;99.90
17891;DHT22;9071;48.220;14.480;2023-08-24T05:19:42;19.80;99.90
17891;DHT22;9071;48.220;14.480;2023-08-24T05:24:45;20.10;99.90
17891;DHT22;9071;48.220;14.480;2023-08-24T05:29:49;20.40;99.90
17891;DHT22;9071;48.220;14.480;2023-08-24T05:34:52;20.70;99.90
17891;DHT22;9071;48.220;14.480;2023-08-24T05:39:56;21.00;99.90
17891;DHT22;9071;48.220;14.480;2023-08-24T05:45:02;22.70;99.90
17891;DHT22;9071;48.220;14.480;2023-08-24T05:50:06;24.10;99.90
17891;DHT22;9071;48.220;14.480;2023-08-24T05:55:09;24.80;99.90
17891;DHT22;9071;48.220;14.480;2023-08-24T06:00:14;25.40;99.90
17891;DHT22;9071;48.220;14.480;2023-08-24T06:05:17;25.20;99.90
17891;DHT22;9071;48.220;14.480;2023-08-24T06:10:20;25.30;99.90
17891;DHT22;9071;48.220;14.480;2023-08-24T06:15:25;25.10;99.90
17891;DHT22;9071;48.220;14.480;2023-08-24T06:20:29;26.10;99.90
17891;DHT22;9071;48.220;14.480;2023-08-24T06:25:31;27.30;99.90
17891;DHT22;9071;48.220;14.480;2023-08-24T06:30:38;27.70;99.90
17891;DHT22;9071;48.220;14.480;2023-08-24T06:35:41;28.60;99.90
17891;DHT22;9071;48.220;14.480;2023-08-24T06:40:44;28.30;99.90
17891;DHT22;9071;48.220;14.480;2023-08-24T06:45:48;29.40;99.90
17891;DHT22;9071;48.220;14.480;2023-08-24T06:50:51;30.00;99.90
17891;DHT22;9071;48.220;14.480;2023-08-24T06:55:55;29.70;99.90
17891;DHT22;9071;48.220;14.480;2023-08-24T07:00:59;29.30;99.90
17891;DHT22;9071;48.220;14.480;2023-08-24T07:06:01;29.50;99.90
17891;DHT22;9071;48.220;14.480;2023-08-24T07:11:05;29.30;99.90
17891;DHT22;9071;48.220;14.480;2023-08-24T07:16:09;29.60;99.90
17891;DHT22;9071;48.220;14.480;2023-08-24T07:21:12;29.90;99.90
17891;DHT22;9071;48.220;14.480;2023-08-24T07:26:15;30.50;99.90
17891;DHT22;9071;48.220;14.480;2023-08-24T07:31:20;31.20;99.90
17891;DHT22;9071;48.220;14.480;2023-08-24T07:36:23;32.30;99.90
17891;DHT22;9071;48.220;14.480;2023-08-24T07:41:26;32.80;99.90
17891;DHT22;9071;48.220;14.480;2023-08-24T07:46:30;31.90;99.90
17891;DHT22;9071;48.220;14.480;2023-08-24T07:51:33;31.30;99.90
17891;DHT22;9071;48.220;14.480;2023-08-24T07:56:36;31.10;99.90
17891;DHT22;9071;48.220;14.480;2023-08-24T08:01:40;30.70;99.90
17891;DHT22;9071;48.220;14.480;2023-08-24T08:06:43;29.20;99.90
17891;DHT22;9071;48.220;14.480;2023-08-24T08:11:45;29.10;99.90
17891;DHT22;9071;48.220;14.480;2023-08-24T08:16:50;28.70;99.90
17891;DHT22;9071;48.220;14.480;2023-08-24T08:21:52;27.60;99.90
17891;DHT22;9071;48.220;14.480;2023-08-24T08:26:55;27.40;99.90
17891;DHT22;9071;48.220;14.480;2023-08-24T08:31:59;27.40;99.90
17891;DHT22;9071;48.220;14.480;2023-08-24T08:37:03;27.60;99.90
17891;DHT22;9071;48.220;14.480;2023-08-24T08:42:11;27.30;99.90
17891;DHT22;9071;48.220;14.480;2023-08-24T08:47:17;27.20;99.90
17891;DHT22;9071;48.220;14.480;2023-08-24T08:52:19;27.30;99.90
17891;DHT22;9071;48.220;14.480;2023-08-24T08:57:23;27.20;99.90
17891;DHT22;9071;48.220;14.480;2023-08-24T09:02:29;27.10;99.90
17891;DHT22;9071;48.220;14.480;2023-08-24T09:07:34;27.30;99.90
17891;DHT22;9071;48.220;14.480;2023-08-24T09:12:37;27.60;99.90
17891;DHT22;9071;48.220;14.480;2023-08-24T09:17:44;27.80;99.90
17891;DHT22;9071;48.220;14.480;2023-08-24T09:22:46;27.70;99.90
17891;DHT22;9071;48.220;14.480;2023-08-24T09:27:56;27.80;99.90
17891;DHT22;9071;48.220;14.480;2023-08-24T09:33:06;28.10;99.90
17891;DHT22;9071;48.220;14.480;2023-08-24T09:38:18;28.40;99.90
17891;DHT22;9071;48.220;14.480;2023-08-24T09:43:22;28.60;99.90
17891;DHT22;9071;48.220;14.480;2023-08-24T09:48:26;28.70;99.90
17891;DHT22;9071;48.220;14.480;2023-08-24T09:53:33;28.70;99.90
17891;DHT22;9071;48.220;14.480;2023-08-24T09:58:38;29.00;99.90
17891;DHT22;9071;48.220;14.480;2023-08-24T10:03:43;29.20;99.90
17891;DHT22;9071;48.220;14.480;2023-08-24T10:08:50;29.50;99.90
17891;DHT22;9071;48.220;14.480;2023-08-24T10:20:32;29.70;99.90
17891;DHT22;9071;48.220;14.480;2023-08-24T10:25:35;29.90;99.90
17891;DHT22;9071;48.220;14.480;2023-08-24T10:30:38;30.00;99.90
17891;DHT22;9071;48.220;14.480;2023-08-24T10:35:42;30.50;99.90
17891;DHT22;9071;48.220;14.480;2023-08-24T10:40:49;30.90;99.90
17891;DHT22;9071;48.220;14.480;2023-08-24T10:45:56;31.00;99.90
17891;DHT22;9071;48.220;14.480;2023-08-24T10:51:19;30.60;99.90
17891;DHT22;9071;48.220;14.480;2023-08-24T10:56:30;30.70;99.90
17891;DHT22;9071;48.220;14.480;2023-08-24T11:01:33;30.70;99.90
17891;DHT22;9071;48.220;14.480;2023-08-24T11:06:51;31.00;99.90
17891;DHT22;9071;48.220;14.480;2023-08-24T11:11:58;31.40;99.90
17891;DHT22;9071;48.220;14.480;2023-08-24T11:17:01;30.70;99.90
17891;DHT22;9071;48.220;14.480;2023-08-24T11:22:20;31.00;99.90
17891;DHT22;9071;48.220;14.480;2023-08-24T11:27:22;31.00;99.90
17891;DHT22;9071;48.220;14.480;2023-08-24T11:32:25;31.00;99.90
17891;DHT22;9071;48.220;14.480;2023-08-24T11:37:28;31.50;99.90
17891;DHT22;9071;48.220;14.480;2023-08-24T11:42:36;31.90;99.90
17891;DHT22;9071;48.220;14.480;2023-08-24T11:47:38;32.10;99.90
17891;DHT22;9071;48.220;14.480;2023-08-24T11:52:42;32.10;99.90
17891;DHT22;9071;48.220;14.480;2023-08-24T11:57:44;32.30;99.90
17891;DHT22;9071;48.220;14.480;2023-08-24T12:02:46;32.30;99.90
17891;DHT22;9071;48.220;14.480;2023-08-24T12:07:51;32.20;99.90
17891;DHT22;9071;48.220;14.480;2023-08-24T12:13:02;32.50;99.90
17891;DHT22;9071;48.220;14.480;2023-08-24T12:18:08;32.00;99.90
17891;DHT22;9071;48.220;14.480;2023-08-24T12:23:12;31.40;99.90
17891;DHT22;9071;48.220;14.480;2023-08-24T12:28:14;31.70;99.90
17891;DHT22;9071;48.220;14.480;2023-08-24T12:33:23;31.50;99.90
17891;DHT22;9071;48.220;14.480;2023-08-24T12:38:27;31.40;99.90
17891;DHT22;9071;48.220;14.480;2023-08-24T12:43:29;31.40;99.90
17891;DHT22;9071;48.220;14.480;2023-08-24T12:48:31;31.40;99.90
17891;DHT22;9071;48.220;14.480;2023-08-24T12:53:34;31.40;99.90
17891;DHT22;9071;48.220;14.480;2023-08-24T12:58:37;31.40;99.90
17891;DHT22;9071;48.220;14.480;2023-08-24T13:03:39;31.30;99.90
17891;DHT22;9071;48.220;14.480;2023-08-24T13:08:42;31.30;99.90
17891;DHT22;9071;48.220;14.480;2023-08-24T13:13:45;31.60;99.90
17891;DHT22;9071;48.220;14.480;2023-08-24T13:18:47;31.80;99.90
17891;DHT22;9071;48.220;14.480;2023-08-24T13:23:50;32.10;99.90
17891;DHT22;9071;48.220;14.480;2023-08-24T13:28:52;31.90;99.90
17891;DHT22;9071;48.220;14.480;2023-08-24T13:33:54;31.60;99.90
17891;DHT22;9071;48.220;14.480;2023-08-24T13:38:58;32.00;99.90
17891;DHT22;9071;48.220;14.480;2023-08-24T13:43:59;32.10;99.90
17891;DHT22;9071;48.220;14.480;2023-08-24T13:49:01;32.10;99.90
17891;DHT22;9071;48.220;14.480;2023-08-24T13:54:13;32.00;99.90
17891;DHT22;9071;48.220;14.480;2023-08-24T13:59:15;32.30;99.90
17891;DHT22;9071;48.220;14.480;2023-08-24T14:04:17;32.40;99.90
17891;DHT22;9071;48.220;14.480;2023-08-24T14:09:21;32.20;99.90
17891;DHT22;9071;48.220;14.480;2023-08-24T14:14:23;32.00;99.90
17891;DHT22;9071;48.220;14.480;2023-08-24T14:19:25;32.10;99.90
17891;DHT22;9071;48.220;14.480;2023-08-24T14:24:29;32.20;99.90
17891;DHT22;9071;48.220;14.480;2023-08-24T14:29:31;32.20;99.90
17891;DHT22;9071;48.220;14.480;2023-08-24T14:34:33;32.20;99.90
17891;DHT22;9071;48.220;14.480;2023-08-24T14:39:36;31.70;99.90
17891;DHT22;9071;48.220;14.480;2023-08-24T14:44:38;31.60;99.90
17891;DHT22;9071;48.220;14.480;2023-08-24T14:49:40;31.80;99.90
17891;DHT22;9071;48.220;14.480;2023-08-24T14:54:43;31.90;99.90
17891;DHT22;9071;48.220;14.480;2023-08-24T14:59:45;32.00;99.90
17891;DHT22;9071;48.220;14.480;2023-08-24T15:04:47;32.10;99.90
17891;DHT22;9071;48.220;14.480;2023-08-24T15:09:51;32.10;99.90
17891;DHT22;9071;48.220;14.480;2023-08-24T15:14:58;32.10;99.90
17891;DHT22;9071;48.220;14.480;2023-08-24T15:20:01;32.10;99.90
17891;DHT22;9071;48.220;14.480;2023-08-24T15:25:07;32.10;99.90
17891;DHT22;9071;48.220;14.480;2023-08-24T15:30:10;31.90;99.90
17891;DHT22;9071;48.220;14.480;2023-08-24T15:35:12;31.80;99.90
17891;DHT22;9071;48.220;14.480;2023-08-24T15:40:15;31.60;99.90
17891;DHT22;9071;48.220;14.480;2023-08-24T15:45:17;31.60;99.90
17891;DHT22;9071;48.220;14.480;2023-08-24T15:50:19;31.60;99.90
17891;DHT22;9071;48.220;14.480;2023-08-24T15:55:23;31.40;99.90
17891;DHT22;9071;48.220;14.480;2023-08-24T16:00:25;31.50;99.90
17891;DHT22;9071;48.220;14.480;2023-08-24T16:05:27;31.40;99.90
17891;DHT22;9071;48.220;14.480;2023-08-24T16:10:30;31.30;99.90
17891;DHT22;9071;48.220;14.480;2023-08-24T16:15:32;31.30;99.90
17891;DHT22;9071;48.220;14.480;2023-08-24T16:20:34;31.30;99.90
17891;DHT22;9071;48.220;14.480;2023-08-24T16:25:37;31.10;99.90
17891;DHT22;9071;48.220;14.480;2023-08-24T16:30:39;31.10;99.90
17891;DHT22;9071;48.220;14.480;2023-08-24T16:35:43;30.90;99.90
17891;DHT22;9071;48.220;14.480;2023-08-24T16:40:47;30.80;99.90
17891;DHT22;9071;48.220;14.480;2023-08-24T16:45:49;30.60;99.90
17891;DHT22;9071;48.220;14.480;2023-08-24T16:50:51;30.50;99.90
17891;DHT22;9071;48.220;14.480;2023-08-24T16:55:55;30.30;99.90
17891;DHT22;9071;48.220;14.480;2023-08-24T17:01:04;30.10;99.90
17891;DHT22;9071;48.220;14.480;2023-08-24T17:06:06;29.80;99.90
17891;DHT22;9071;48.220;14.480;2023-08-24T17:11:09;29.50;99.90
17891;DHT22;9071;48.220;14.480;2023-08-24T17:16:11;29.30;99.90
17891;DHT22;9071;48.220;14.480;2023-08-24T17:21:14;29.10;99.90
17891;DHT22;9071;48.220;14.480;2023-08-24T17:26:18;28.90;99.90
17891;DHT22;9071;48.220;14.480;2023-08-24T17:31:19;28.70;99.90
17891;DHT22;9071;48.220;14.480;2023-08-24T17:36:22;28.40;99.90
17891;DHT22;9071;48.220;14.480;2023-08-24T17:41:26;28.30;99.90
17891;DHT22;9071;48.220;14.480;2023-08-24T17:46:28;28.10;99.90
17891;DHT22;9071;48.220;14.480;2023-08-24T17:51:30;28.00;99.90
17891;DHT22;9071;48.220;14.480;2023-08-24T17:56:33;27.80;99.90
17891;DHT22;9071;48.220;14.480;2023-08-24T18:01:35;27.70;99.90
17891;DHT22;9071;48.220;14.480;2023-08-24T18:06:37;27.50;99.90
17891;DHT22;9071;48.220;14.480;2023-08-24T18:11:41;27.30;99.90
17891;DHT22;9071;48.220;14.480;2023-08-24T18:16:43;27.20;99.90
17891;DHT22;9071;48.220;14.480;2023-08-24T18:21:45;27.10;99.90
17891;DHT22;9071;48.220;14.480;2023-08-24T18:26:48;27.00;99.90
17891;DHT22;9071;48.220;14.480;2023-08-24T18:31:50;26.80;99.90
17891;DHT22;9071;48.220;14.480;2023-08-24T18:36:52;26.70;99.90
17891;DHT22;9071;48.220;14.480;2023-08-24T18:41:55;26.50;99.90
17891;DHT22;9071;48.220;14.480;2023-08-24T18:46:57;26.40;99.90
17891;DHT22;9071;48.220;14.480;2023-08-24T18:52:00;26.20;99.90
17891;DHT22;9071;48.220;14.480;2023-08-24T18:57:03;26.00;99.90
17891;DHT22;9071;48.220;14.480;2023-08-24T19:02:06;25.90;99.90
17891;DHT22;9071;48.220;14.480;2023-08-24T19:07:08;25.90;99.90
17891;DHT22;9071;48.220;14.480;2023-08-24T19:12:11;25.80;99.90
17891;DHT22;9071;48.220;14.480;2023-08-24T19:17:13;25.80;99.90
17891;DHT22;9071;48.220;14.480;2023-08-24T19:22:15;25.70;99.90
17891;DHT22;9071;48.220;14.480;2023-08-24T19:27:18;25.50;99.90
17891;DHT22;9071;48.220;14.480;2023-08-24T19:32:21;25.50;99.90
17891;DHT22;9071;48.220;14.480;2023-08-24T19:37:23;25.30;99.90
17891;DHT22;9071;48.220;14.480;2023-08-24T19:42:26;25.20;99.90
17891;DHT22;9071;48.220;14.480;2023-08-24T19:47:30;25.00;99.90
17891;DHT22;9071;48.220;14.480;2023-08-24T19:52:32;24.70;99.90
17891;DHT22;9071;48.220;14.480;2023-08-24T19:57:35;24.50;99.90
17891;DHT22;9071;48.220;14.480;2023-08-24T20:02:37;24.30;99.90
17891;DHT22;9071;48.220;14.480;2023-08-24T20:07:41;24.20;99.90
17891;DHT22;9071;48.220;14.480;2023-08-24T20:12:50;24.10;99.90
17891;DHT22;9071;48.220;14.480;2023-08-24T20:17:52;24.00;99.90
17891;DHT22;9071;48.220;14.480;2023-08-24T20:22:54;23.80;99.90
17891;DHT22;9071;48.220;14.480;2023-08-24T20:27:58;23.70;99.90
17891;DHT22;9071;48.220;14.480;2023-08-24T20:33:00;23.50;99.90
17891;DHT22;9071;48.220;14.480;2023-08-24T20:38:02;23.40;99.90
17891;DHT22;9071;48.220;14.480;2023-08-24T20:43:05;23.30;99.90
17891;DHT22;9071;48.220;14.480;2023-08-24T20:48:07;23.20;99.90
17891;DHT22;9071;48.220;14.480;2023-08-24T20:53:09;23.20;99.90
17891;DHT22;9071;48.220;14.480;2023-08-24T20:58:13;23.10;99.90
17891;DHT22;9071;48.220;14.480;2023-08-24T21:03:16;23.00;99.90
17891;DHT22;9071;48.220;14.480;2023-08-24T21:08:18;22.90;99.90
17891;DHT22;9071;48.220;14.480;2023-08-24T21:13:21;22.90;99.90
17891;DHT22;9071;48.220;14.480;2023-08-24T21:18:23;22.80;99.90
17891;DHT22;9071;48.220;14.480;2023-08-24T21:23:25;22.70;99.90
17891;DHT22;9071;48.220;14.480;2023-08-24T21:28:28;22.80;99.90
17891;DHT22;9071;48.220;14.480;2023-08-24T21:33:31;22.70;99.90
17891;DHT22;9071;48.220;14.480;2023-08-24T21:38:33;22.60;99.90
17891;DHT22;9071;48.220;14.480;2023-08-24T21:43:37;22.40;99.90
17891;DHT22;9071;48.220;14.480;2023-08-24T21:48:39;22.40;99.90
17891;DHT22;9071;48.220;14.480;2023-08-24T21:53:40;22.40;99.90
17891;DHT22;9071;48.220;14.480;2023-08-24T21:58:44;22.40;99.90
17891;DHT22;9071;48.220;14.480;2023-08-24T22:03:46;22.50;99.90
17891;DHT22;9071;48.220;14.480;2023-08-24T22:08:49;22.60;99.90
17891;DHT22;9071;48.220;14.480;2023-08-24T22:13:52;22.70;99.90
17891;DHT22;9071;48.220;14.480;2023-08-24T22:18:55;22.60;99.90
17891;DHT22;9071;48.220;14.480;2023-08-24T22:23:57;22.70;99.90
17891;DHT22;9071;48.220;14.480;2023-08-24T22:29:00;22.60;99.90
17891;DHT22;9071;48.220;14.480;2023-08-24T22:34:03;22.50;99.90
17891;DHT22;9071;48.220;14.480;2023-08-24T22:39:05;22.50;99.90
17891;DHT22;9071;48.220;14.480;2023-08-24T22:44:10;22.50;99.90
17891;DHT22;9071;48.220;14.480;2023-08-24T22:49:12;22.50;99.90
17891;DHT22;9071;48.220;14.480;2023-08-24T22:54:15;22.70;99.90
17891;DHT22;9071;48.220;14.480;2023-08-24T22:59:19;23.00;99.90
17891;DHT22;9071;48.220;14.480;2023-08-24T23:04:21;23.10;99.90
17891;DHT22;9071;48.220;14.480;2023-08-24T23:09:26;22.30;99.90
17891;DHT22;9071;48.220;14.480;2023-08-24T23:14:29;21.80;99.90
17891;DHT22;9071;48.220;14.480;2023-08-24T23:19:32;20.90;99.90
17891;DHT22;9071;48.220;14.480;2023-08-24T23:24:36;20.00;99.90
17891;DHT22;9071;48.220;14.480;2023-08-24T23:29:40;19.70;99.90
17891;DHT22;9071;48.220;14.480;2023-08-24T23:34:43;19.50;99.90
17891;DHT22;9071;48.220;14.480;2023-08-24T23:39:45;19.50;99.90
17891;DHT22;9071;48.220;14.480;2023-08-24T23:44:49;19.50;99.90
17891;DHT22;9071;48.220;14.480;2023-08-24T23:49:51;19.40;99.90
17891;DHT22;9071;48.220;14.480;2023-08-24T23:54:54;19.40;99.90
17891;DHT22;9071;48.220;14.480;2023-08-24T23:59:57;19.40;99.90
